McKee, Kentucky
Current Conditions -  °F | °C
As of 11:35 PM on Saturday 22 Nov 2014 (Local Time) from KI39 Reporting Station
Overcast Overcast  
Wind Chill: 52°   Ceiling: 10000
Heat Index: 52°   Visibility: 10mi
Dew Point: 32°   Wind: 5mph
Humidity: 47%   Direction: 170°S
Pressure: 30.1"   Gusts: NA
Location:  37.43°N, 84°W
Report Text: KI39 230435Z AUTO 17004KT 10SM OVC100 11/00 A3010 RMK AO2
Loading
Personal Weather Stations






























Interactive Weather Map New forecast layout! Learn more

10-Day Weather Forecast

Advertisements
Track Severe Weather on mobile